22 maja 2022

Czas Kod Pogoda Temp. Widoczność Chmury Wiatr METAR/SPECI
08:55
V
15 °C 10 km+ - 150°   150° 6 kt METAR EHAM 220655Z 15006KT 110V190 CAVOK 15/11 Q1017 NOSIG
08:25
V
14 °C 10 km+ - 160°   160° 4 kt METAR EHAM 220625Z 16004KT 130V190 CAVOK 14/11 Q1017 NOSIG
07:55
V
13 °C 10 km+ - 140°   140° 3 kt METAR EHAM 220555Z 14003KT CAVOK 13/10 Q1017 NOSIG
07:25
V
12 °C 10 km+ - Var   Var 2 kt METAR EHAM 220525Z VRB02KT CAVOK 12/10 Q1017 NOSIG
06:55
V
10 °C 10 km+ - 150°   150° 2 kt METAR EHAM 220455Z 15002KT 9999 MIFG NSC 10/10 Q1017 NOSIG
06:25
V
9 °C 10 km+ - 150°   150° 2 kt METAR EHAM 220425Z 15002KT 9999 MIFG NSC 09/09 Q1017 NOSIG
05:55
V
9 °C 10 km+ - 150°   150° 3 kt METAR EHAM 220355Z 15003KT 9999 MIFG NSC 09/09 Q1018 NOSIG
05:25
V
9 °C 10 km+ - 090°   090° 2 kt METAR EHAM 220325Z 09002KT 9999 MIFG NSC 09/08 Q1018 NOSIG
04:55
V
9 °C 9 km - 170°   170° 2 kt METAR EHAM 220255Z 17002KT 9000 MIFG NSC 09/09 Q1018 NOSIG
04:25
V
9 °C 10 km+ - 190°   190° 3 kt METAR EHAM 220225Z 19003KT 9999 MIFG NSC 09/09 Q1018 NOSIG
03:55
V
9 °C 10 km+ - 160°   160° 3 kt METAR EHAM 220155Z 16003KT 9999 MIFG NSC 09/09 Q1018 NOSIG
03:25
V
9 °C 10 km+ - 110°   110° 1 kt METAR EHAM 220125Z 11001KT 9999 MIFG NSC 09/09 Q1019 NOSIG
02:55
V
9 °C 10 km+ - Var   Var 1 kt METAR EHAM 220055Z VRB01KT 9999 R18C/P2000N R27/P2000N R18R/0800U R06/P2000N MIFG NSC 09/09 Q1019 NOSIG
02:25
V
10 °C 10 km+ - 330°   330° 1 kt METAR EHAM 220025Z 33001KT 9999 MIFG NSC 10/09 Q1019 NOSIG
01:55
V
10 °C 10 km+ - Var   000° 0 kt METAR EHAM 212355Z 00000KT 9999 MIFG NSC 10/09 Q1019 NOSIG
01:25
V
9 °C 10 km+ - 350°   350° 2 kt METAR EHAM 212325Z 35002KT 9999 MIFG NSC 09/09 Q1020 NOSIG
00:55
V
10 °C 10 km+ - Var   Var 2 kt METAR EHAM 212255Z VRB02KT 9999 MIFG NSC 10/09 Q1020 NOSIG
00:25
V
10 °C 10 km+ - 020°   020° 1 kt METAR EHAM 212225Z 02001KT CAVOK 10/09 Q1020 NOSIG

21 maja 2022

Czas Kod Pogoda Temp. Widoczność Chmury Wiatr METAR/SPECI
23:55
V
11 °C 10 km+ - 020°   020° 1 kt METAR EHAM 212155Z 02001KT CAVOK 11/09 Q1019 NOSIG
23:25
V
11 °C 10 km+ - Var   000° 0 kt METAR EHAM 212125Z 00000KT CAVOK 11/09 Q1020 NOSIG
22:55
V
12 °C 10 km+ - Var   Var 1 kt METAR EHAM 212055Z VRB01KT CAVOK 12/09 Q1020 NOSIG
22:25
V
12 °C 10 km+ - 310°   310° 3 kt METAR EHAM 212025Z 31003KT 270V340 CAVOK 12/09 Q1020 NOSIG
21:55
V
12 °C 10 km+ - 310°   310° 5 kt METAR EHAM 211955Z 31005KT 280V340 CAVOK 12/09 Q1020 NOSIG
21:25
V
13 °C 10 km+ - 300°   300° 5 kt METAR EHAM 211925Z 30005KT 270V330 CAVOK 13/09 Q1020 NOSIG
20:55
V
14 °C 10 km+ - 290°   290° 5 kt METAR EHAM 211855Z 29005KT 260V330 CAVOK 14/09 Q1020 NOSIG
20:25
V
15 °C 10 km+ - 290°   290° 5 kt METAR EHAM 211825Z 29005KT 260V340 CAVOK 15/09 Q1020 NOSIG
19:55
V
15 °C 10 km+ - 270°   270° 6 kt METAR EHAM 211755Z 27006KT 240V300 CAVOK 15/09 Q1020 NOSIG
19:25
V
15 °C 10 km+ - 270°   270° 8 kt METAR EHAM 211725Z 27008KT 9999 FEW028 15/09 Q1020 NOSIG
18:55
V
16 °C 10 km+ - 270°   270° 9 kt METAR EHAM 211655Z 27009KT 230V300 9999 FEW025 16/09 Q1020 NOSIG
18:25
V
16 °C 10 km+ - 280°   280° 9 kt METAR EHAM 211625Z 28009KT 250V320 9999 FEW025 16/10 Q1021 NOSIG
17:55
V
16 °C 10 km+ - 270°   270° 9 kt METAR EHAM 211555Z 27009KT 230V330 9999 FEW022 16/10 Q1021 NOSIG
17:25
V
16 °C 10 km+ - 270°   270° 10 kt METAR EHAM 211525Z 27010KT 240V310 9999 FEW022 16/09 Q1021 NOSIG
16:55
V
16 °C 10 km+ - 290°   290° 11 kt METAR EHAM 211455Z 29011KT 260V320 9999 FEW022 16/10 Q1021 NOSIG
16:25
V
16 °C 10 km+ - 280°   280° 12 kt METAR EHAM 211425Z 28012KT 9999 FEW019 16/11 Q1021 NOSIG
15:55
V
16 °C 10 km+ - 270°   270° 11 kt METAR EHAM 211355Z 27011KT 230V300 9999 FEW019 16/10 Q1021 NOSIG
15:25
V
16 °C 10 km+ - 280°   280° 10 kt METAR EHAM 211325Z 28010KT 240V310 9999 FEW019 16/10 Q1021 NOSIG
14:55
V
16 °C 10 km+ - 270°   270° 11 kt METAR EHAM 211255Z 27011KT 230V310 9999 SCT019 16/10 Q1021 NOSIG
14:25
V
17 °C 10 km+ - 270°   270° 11 kt METAR EHAM 211225Z 27011KT 220V310 9999 SCT019 17/11 Q1021 NOSIG
13:55
V
16 °C 10 km+ - 260°   260° 12 kt METAR EHAM 211155Z 26012KT 220V280 9999 SCT018 16/11 Q1021 NOSIG
13:25
V
16 °C 10 km+ - 260°   260° 11 kt METAR EHAM 211125Z 26011KT 220V290 9999 FEW018 16/11 Q1021 NOSIG
12:55
V
15 °C 10 km+ - 260°   260° 11 kt METAR EHAM 211055Z 26011KT 220V310 9999 FEW018 15/11 Q1021 NOSIG
12:25
V
15 °C 10 km+ - 260°   260° 11 kt METAR EHAM 211025Z 26011KT 220V310 9999 FEW018 15/11 Q1021 NOSIG
11:55
V
15 °C 10 km+ - 270°   270° 12 kt METAR EHAM 210955Z 27012KT 240V300 9999 SCT018 15/11 Q1021 NOSIG
11:25
V
15 °C 10 km+ - 270°   270° 11 kt METAR EHAM 210925Z 27011KT 230V300 9999 FEW018 15/10 Q1020 NOSIG
10:55
V
15 °C 10 km+ - 270°   270° 12 kt METAR EHAM 210855Z 27012KT 240V320 9999 FEW018 15/11 Q1020 NOSIG
10:25
V
15 °C 10 km+ - 270°   270° 13 kt METAR EHAM 210825Z 27013KT 250V310 9999 FEW017 15/11 Q1020 NOSIG
09:55
V
15 °C 10 km+ - 260°   260° 14 kt METAR EHAM 210755Z 26014KT 240V300 9999 FEW017 15/11 Q1020 NOSIG
09:25
V
15 °C 10 km+ - 270°   270° 15 kt METAR EHAM 210725Z 27015KT 9999 FEW016 15/11 Q1020 NOSIG
08:55
V
14 °C 10 km+ - 270°   270° 15 kt METAR EHAM 210655Z 27015KT 9999 FEW016 14/11 Q1019 NOSIG
08:25
V
14 °C 10 km+ - 260°   260° 14 kt METAR EHAM 210625Z 26014KT 9999 FEW016 14/10 Q1019 NOSIG
07:55
V
13 °C 10 km+ - 270°   270° 13 kt METAR EHAM 210555Z 27013KT 9999 FEW015 13/10 Q1019 NOSIG
07:25
V
13 °C 10 km+ - 260°   260° 12 kt METAR EHAM 210525Z 26012KT 240V300 CAVOK 13/10 Q1018 NOSIG
06:55
V
13 °C 10 km+ - 260°   260° 13 kt METAR EHAM 210455Z 26013KT 230V290 CAVOK 13/10 Q1018 NOSIG
06:25
V
13 °C 10 km+ - 260°   260° 12 kt METAR EHAM 210425Z 26012KT 9999 FEW016 13/10 Q1018 NOSIG
05:55
V
13 °C 10 km+ - 250°   250° 13 kt METAR EHAM 210355Z 25013KT 9999 FEW016 13/10 Q1018 NOSIG
05:25
V
13 °C 10 km+ - 250°   250° 14 kt METAR EHAM 210325Z 25014KT 220V280 9999 FEW013 13/10 Q1018 NOSIG
04:55
V
13 °C 10 km+ - 250°   250° 15 kt METAR EHAM 210255Z 25015KT 220V280 9999 FEW011 13/11 Q1018 NOSIG
04:25
V
13 °C 10 km+ - 240°   240° 14 kt METAR EHAM 210225Z 24014KT 210V270 9999 FEW010 SCT014 13/11 Q1018 NOSIG
03:55
V
13 °C 10 km+ - 240°   240° 16 kt METAR EHAM 210155Z 24016KT 9999 FEW010 SCT014 13/11 Q1017 NOSIG
03:25
M
13 °C 10 km+ 1.400 ft 240°   240° 14 kt METAR EHAM 210125Z 24014KT 200V260 9999 FEW011 BKN014 13/11 Q1018 NOSIG
02:55
M
13 °C 10 km+ 1.500 ft 230°   230° 16 kt METAR EHAM 210055Z 23016KT 200V260 9999 FEW011 BKN015 13/11 Q1018 NOSIG
02:25
V
13 °C 10 km+ - 230°   230° 13 kt METAR EHAM 210025Z 23013KT 200V260 9999 FEW012 SCT015 13/11 Q1017 TEMPO BKN015
01:55
V
13 °C 10 km+ - 220°   220° 12 kt METAR EHAM 202355Z 22012KT 9999 FEW013 SCT015 13/11 Q1018 TEMPO BKN015
01:25
V
13 °C 10 km+ - 220°   220° 11 kt METAR EHAM 202325Z 22011KT 9999 FEW012 13/11 Q1018 NOSIG
00:55
V
12 °C 10 km+ - 220°   220° 9 kt METAR EHAM 202255Z 22009KT 9999 FEW015 12/11 Q1018 NOSIG
00:25
V
12 °C 10 km+ - 220°   220° 9 kt METAR EHAM 202225Z 22009KT 9999 FEW012 12/11 Q1018 NOSIG

20 maja 2022

Czas Kod Pogoda Temp. Widoczność Chmury Wiatr METAR/SPECI
23:55
V
12 °C 10 km+ - 230°   230° 10 kt METAR EHAM 202155Z 23010KT 9999 FEW009 12/11 Q1018 NOSIG
23:25
V
12 °C 10 km+ - 230°   230° 11 kt METAR EHAM 202125Z 23011KT 9999 FEW009 12/10 Q1018 NOSIG
22:55
V
12 °C 10 km+ - 250°   250° 11 kt METAR EHAM 202055Z 25011KT 9999 FEW013 12/11 Q1018 NOSIG
22:25
V
12 °C 10 km+ - 250°   250° 11 kt METAR EHAM 202025Z 25011KT 220V280 9999 FEW013 12/10 Q1018 NOSIG
21:55
M
12 °C 10 km+ 1.800 ft 270°   270° 12 kt METAR EHAM 201955Z 27012KT 9999 FEW010 BKN018 12/11 Q1017 BECMG CAVOK
21:25
V
12 °C 10 km+ 3.000 ft 270°   270° 12 kt METAR EHAM 201925Z 27012KT 9999 FEW010 SCT016 BKN030 12/11 Q1017 NOSIG
20:55
M
12 °C 10 km+ 1.500 ft 270°   270° 12 kt METAR EHAM 201855Z 27012KT 9999 SCT008 BKN015 12/11 Q1017 BECMG SCT020
20:25
M
12 °C 10 km+ 1.200 ft 270°   270° 11 kt METAR EHAM 201825Z 27011KT 9999 SCT008 BKN012 12/11 Q1016 BECMG SCT020
19:55
V
12 °C 10 km+ 4.000 ft 280°   280° 9 kt METAR EHAM 201755Z 28009KT 9999 SCT008 SCT020 BKN040 12/10 Q1016 NOSIG
19:25
M
12 °C 10 km+ 2.500 ft 280°   280° 14 kt METAR EHAM 201725Z 28014KT 260V320 9999 FEW010 SCT014 BKN025 12/10 Q1016 NOSIG
18:55
M
12 °C 10 km+ 2.500 ft 290°   290° 9 kt METAR EHAM 201655Z 29009KT 260V320 9999 -RA FEW012 SCT019 BKN025 12/11 Q1015 NOSIG
18:25
M
12 °C 10 km+ 1.200 ft 290°   290° 17 kt METAR EHAM 201625Z 29017KT 9999 FEW009 BKN012 12/11 Q1015 BECMG SCT018
17:55
M
14 °C 8 km 1.000 ft 320°   320° 9 kt METAR EHAM 201555Z 32009KT 290V010 8000 FEW006 BKN010 14/13 Q1014 BECMG SCT018
17:25
M
13 °C 7 km - 310°   310° 11 kt METAR EHAM 201525Z 31011KT 7000 -RADZ FEW009 SCT018 13/12 Q1014 BECMG 9999 TEMPO BKN013
16:55
M
13 °C 6 km 2.600 ft 310°   310° 14 kt METAR EHAM 201455Z 31014KT 280V340 6000 -RADZ FEW009 SCT018 BKN026 13/12 Q1014 RESHRA BECMG 9999 TEMPO BKN013
16:25
M
13 °C 5 km 2.300 ft 310°   310° 14 kt METAR EHAM 201425Z 31014KT 5000 SHRA SCT013 SCT016 FEW020CB BKN023 13/12 Q1014 BECMG 8000 BKN013
15:55
I
15 °C 3 km 2.300 ft 320°   320° 9 kt METAR EHAM 201355Z 32009KT 290V350 3000 SHRA SCT013 SCT016 FEW020CB BKN023 15/14 Q1014 BECMG 8000 BKN013
15:25
I
16 °C 4,8 km - Var   Var 4 kt METAR EHAM 201325Z VRB04KT 4800 SHRA FEW027 FEW030CB 16/14 Q1014 TEMPO 8000
14:55
I
16 °C 4,8 km - 120°   120° 3 kt METAR EHAM 201255Z 12003KT 070V230 4800 SHRA SCT035CB 16/14 Q1015 TEMPO 8000
14:25
M
17 °C 6 km - 060°   060° 7 kt METAR EHAM 201225Z 06007KT 030V090 6000 RA NSC 17/12 Q1014 TEMPO 4000 SHRA FEW035CB
13:55
V
19 °C 10 km+ - 050°   050° 7 kt METAR EHAM 201155Z 05007KT 320V120 CAVOK 19/10 Q1014 BECMG 35005KT TEMPO 5000 -RA
13:25
V
18 °C 10 km+ - 090°   090° 9 kt METAR EHAM 201125Z 09009KT 060V120 CAVOK 18/11 Q1015 TEMPO 5000 -RA
12:55
V
19 °C 10 km+ - 110°   110° 8 kt METAR EHAM 201055Z 11008KT 060V150 CAVOK 19/12 Q1016 TEMPO 5000 -RA
12:25
V
19 °C 10 km+ - 120°   120° 8 kt METAR EHAM 201025Z 12008KT 080V140 CAVOK 19/12 Q1017 NOSIG
11:55
V
18 °C 10 km+ - 120°   120° 7 kt METAR EHAM 200955Z 12007KT 070V140 CAVOK 18/12 Q1018 NOSIG
11:25
V
18 °C 10 km+ - 120°   120° 7 kt METAR EHAM 200925Z 12007KT 080V160 CAVOK 18/12 Q1018 NOSIG
10:55
V
17 °C 10 km+ - 130°   130° 8 kt METAR EHAM 200855Z 13008KT 090V170 CAVOK 17/11 Q1019 NOSIG
10:25
V
17 °C 10 km+ - 140°   140° 9 kt METAR EHAM 200825Z 14009KT 110V170 CAVOK 17/11 Q1019 NOSIG
09:55
V
17 °C 10 km+ - 130°   130° 9 kt METAR EHAM 200755Z 13009KT CAVOK 17/11 Q1020 NOSIG
09:25
V
16 °C 10 km+ - 130°   130° 6 kt METAR EHAM 200725Z 13006KT 090V180 CAVOK 16/11 Q1020 NOSIG
08:55
V
15 °C 10 km+ - 140°   140° 8 kt METAR EHAM 200655Z 14008KT CAVOK 15/12 Q1020 NOSIG
08:25
V
14 °C 10 km+ - 150°   150° 6 kt METAR EHAM 200625Z 15006KT 120V180 9999 FEW004 14/12 Q1020 NOSIG
07:55
V
14 °C 9 km - 130°   130° 3 kt METAR EHAM 200555Z 13003KT 100V160 9000 NSC 14/12 Q1021 NOSIG
07:25
M
12 °C 7 km - 170°   170° 4 kt METAR EHAM 200525Z 17004KT 7000 NSC 12/11 Q1020 BECMG CAVOK
06:55
M
11 °C 6 km - 080°   080° 4 kt METAR EHAM 200455Z 08004KT 6000 NSC 11/11 Q1020 BECMG CAVOK
Starsze dane

Pobierz naszą aplikację

Łatwy dostęp do całej pogody lotniczej na telefonie komórkowym i tablecie.
Z wieloma funkcjami niedostępnymi na stronie internetowej, takimi jak wsparcie offline i osobista lista lotnisk.

My i osoby trzecie śledzimy twoje zachowanie w internecie na naszej stronie za pomocą plików cookie. Jeśli kontynuujesz, zakładamy, że zgadzasz się z naszą polityką plików cookie. Dowiedz się więcej